sensor_id;sensor_type;location;lat;lon;timestamp;P1;durP1;ratioP1;P2;durP2;ratioP2
69779;SDS011;57052;55.602;38.096;2022-08-11T00:00:18;3.17;;;1.40;;
69779;SDS011;57052;55.602;38.096;2022-08-11T00:02:46;3.35;;;1.30;;
69779;SDS011;57052;55.602;38.096;2022-08-11T00:05:17;2.75;;;1.40;;
69779;SDS011;57052;55.602;38.096;2022-08-11T00:10:13;3.00;;;1.40;;
69779;SDS011;57052;55.602;38.096;2022-08-11T00:12:41;2.83;;;1.42;;
69779;SDS011;57052;55.602;38.096;2022-08-11T00:15:08;6.32;;;1.65;;
69779;SDS011;57052;55.602;38.096;2022-08-11T00:17:35;3.03;;;1.75;;
69779;SDS011;57052;55.602;38.096;2022-08-11T00:20:06;6.18;;;2.13;;
69779;SDS011;57052;55.602;38.096;2022-08-11T00:22:35;4.68;;;1.90;;
69779;SDS011;57052;55.602;38.096;2022-08-11T00:25:10;3.63;;;1.90;;
69779;SDS011;57052;55.602;38.096;2022-08-11T00:27:42;3.05;;;1.80;;
69779;SDS011;57052;55.602;38.096;2022-08-11T00:30:11;3.97;;;1.80;;
69779;SDS011;57052;55.602;38.096;2022-08-11T00:32:38;3.90;;;1.70;;
69779;SDS011;57052;55.602;38.096;2022-08-11T00:35:10;5.18;;;1.75;;
69779;SDS011;57052;55.602;38.096;2022-08-11T00:37:38;7.82;;;1.70;;
69779;SDS011;57052;55.602;38.096;2022-08-11T00:40:04;4.20;;;1.63;;
69779;SDS011;57052;55.602;38.096;2022-08-11T00:42:58;2.30;;;1.45;;
69779;SDS011;57052;55.602;38.096;2022-08-11T00:45:41;3.40;;;1.50;;
69779;SDS011;57052;55.602;38.096;2022-08-11T00:48:24;3.67;;;1.42;;
69779;SDS011;57052;55.602;38.096;2022-08-11T00:51:15;4.22;;;1.45;;
69779;SDS011;57052;55.602;38.096;2022-08-11T01:20:13;3.17;;;1.70;;
69779;SDS011;57052;55.602;38.096;2022-08-11T01:37:05;3.05;;;1.23;;
69779;SDS011;57052;55.602;38.096;2022-08-11T01:48:38;2.22;;;1.15;;
69779;SDS011;57052;55.602;38.096;2022-08-11T01:51:13;3.08;;;1.20;;
69779;SDS011;57052;55.602;38.096;2022-08-11T01:54:47;2.58;;;1.30;;
69779;SDS011;57052;55.602;38.096;2022-08-11T01:56:52;2.33;;;1.45;;
69779;SDS011;57052;55.602;38.096;2022-08-11T01:59:44;4.50;;;1.10;;
69779;SDS011;57052;55.602;38.096;2022-08-11T02:02:28;3.03;;;1.50;;
69779;SDS011;57052;55.602;38.096;2022-08-11T02:11:41;2.40;;;1.20;;
69779;SDS011;57052;55.602;38.096;2022-08-11T02:17:13;2.05;;;1.20;;
69779;SDS011;57052;55.602;38.096;2022-08-11T02:22:48;3.50;;;1.48;;
69779;SDS011;57052;55.602;38.096;2022-08-11T02:25:49;2.10;;;1.30;;
69779;SDS011;57052;55.602;38.096;2022-08-11T02:28:22;3.22;;;1.30;;
69779;SDS011;57052;55.602;38.096;2022-08-11T02:33:41;3.38;;;1.30;;
69779;SDS011;57052;55.602;38.096;2022-08-11T02:36:15;2.67;;;1.15;;
69779;SDS011;57052;55.602;38.096;2022-08-11T02:38:48;3.35;;;1.38;;
69779;SDS011;57052;55.602;38.096;2022-08-11T02:41:30;3.22;;;1.30;;
69779;SDS011;57052;55.602;38.096;2022-08-11T02:52:26;2.55;;;1.40;;
69779;SDS011;57052;55.602;38.096;2022-08-11T03:00:21;3.55;;;1.60;;
69779;SDS011;57052;55.602;38.096;2022-08-11T03:05:25;3.95;;;1.70;;
69779;SDS011;57052;55.602;38.096;2022-08-11T03:08:18;3.28;;;1.60;;
69779;SDS011;57052;55.602;38.096;2022-08-11T03:13:41;4.80;;;1.60;;
69779;SDS011;57052;55.602;38.096;2022-08-11T03:16:36;3.33;;;1.60;;
69779;SDS011;57052;55.602;38.096;2022-08-11T03:22:11;4.30;;;2.10;;
69779;SDS011;57052;55.602;38.096;2022-08-11T03:25:07;7.80;;;3.15;;
69779;SDS011;57052;55.602;38.096;2022-08-11T03:31:17;5.97;;;2.80;;
69779;SDS011;57052;55.602;38.096;2022-08-11T03:34:06;5.20;;;1.80;;
69779;SDS011;57052;55.602;38.096;2022-08-11T03:39:21;5.20;;;2.13;;
69779;SDS011;57052;55.602;38.096;2022-08-11T03:45:25;3.95;;;1.80;;
69779;SDS011;57052;55.602;38.096;2022-08-11T03:48:15;3.33;;;1.48;;
69779;SDS011;57052;55.602;38.096;2022-08-11T03:53:16;3.33;;;1.75;;
69779;SDS011;57052;55.602;38.096;2022-08-11T04:04:14;3.67;;;1.92;;
69779;SDS011;57052;55.602;38.096;2022-08-11T04:35:18;4.18;;;1.90;;
69779;SDS011;57052;55.602;38.096;2022-08-11T04:49:05;6.00;;;1.90;;
69779;SDS011;57052;55.602;38.096;2022-08-11T05:00:55;4.53;;;1.92;;
69779;SDS011;57052;55.602;38.096;2022-08-11T05:12:52;3.58;;;1.70;;
69779;SDS011;57052;55.602;38.096;2022-08-11T05:15:19;4.78;;;1.90;;
69779;SDS011;57052;55.602;38.096;2022-08-11T05:18:18;4.82;;;1.80;;
69779;SDS011;57052;55.602;38.096;2022-08-11T05:21:06;2.78;;;1.80;;
69779;SDS011;57052;55.602;38.096;2022-08-11T05:24:03;5.32;;;1.90;;
69779;SDS011;57052;55.602;38.096;2022-08-11T05:26:56;6.47;;;2.40;;
69779;SDS011;57052;55.602;38.096;2022-08-11T05:32:59;6.00;;;1.80;;
69779;SDS011;57052;55.602;38.096;2022-08-11T05:35:48;3.67;;;2.00;;
69779;SDS011;57052;55.602;38.096;2022-08-11T05:38:25;5.03;;;2.10;;
69779;SDS011;57052;55.602;38.096;2022-08-11T05:41:13;4.35;;;1.98;;
69779;SDS011;57052;55.602;38.096;2022-08-11T05:43:58;4.03;;;1.90;;
69779;SDS011;57052;55.602;38.096;2022-08-11T05:46:43;4.85;;;2.28;;
69779;SDS011;57052;55.602;38.096;2022-08-11T05:49:29;2.85;;;1.98;;
69779;SDS011;57052;55.602;38.096;2022-08-11T05:52:25;3.22;;;1.73;;
69779;SDS011;57052;55.602;38.096;2022-08-11T05:55:12;6.95;;;2.17;;
69779;SDS011;57052;55.602;38.096;2022-08-11T05:57:58;4.38;;;2.30;;
69779;SDS011;57052;55.602;38.096;2022-08-11T06:00:26;3.17;;;2.10;;
69779;SDS011;57052;55.602;38.096;2022-08-11T06:02:54;4.32;;;2.00;;
69779;SDS011;57052;55.602;38.096;2022-08-11T06:05:35;3.53;;;1.65;;
69779;SDS011;57052;55.602;38.096;2022-08-11T06:08:03;3.17;;;1.80;;
69779;SDS011;57052;55.602;38.096;2022-08-11T06:10:38;4.88;;;1.95;;
69779;SDS011;57052;55.602;38.096;2022-08-11T06:13:06;4.43;;;1.95;;
69779;SDS011;57052;55.602;38.096;2022-08-11T06:15:42;3.22;;;2.00;;
69779;SDS011;57052;55.602;38.096;2022-08-11T06:18:09;3.53;;;2.00;;
69779;SDS011;57052;55.602;38.096;2022-08-11T06:20:55;3.63;;;2.17;;
69779;SDS011;57052;55.602;38.096;2022-08-11T06:23:23;4.50;;;2.03;;
69779;SDS011;57052;55.602;38.096;2022-08-11T06:28:33;3.85;;;2.03;;
69779;SDS011;57052;55.602;38.096;2022-08-11T06:31:01;4.15;;;2.30;;
69779;SDS011;57052;55.602;38.096;2022-08-11T06:44:31;3.60;;;1.98;;
69779;SDS011;57052;55.602;38.096;2022-08-11T06:47:10;3.70;;;1.80;;
69779;SDS011;57052;55.602;38.096;2022-08-11T06:49:39;3.17;;;1.77;;
69779;SDS011;57052;55.602;38.096;2022-08-11T06:52:32;3.42;;;1.83;;
69779;SDS011;57052;55.602;38.096;2022-08-11T06:55:22;3.23;;;1.80;;
69779;SDS011;57052;55.602;38.096;2022-08-11T06:58:13;3.90;;;2.22;;
69779;SDS011;57052;55.602;38.096;2022-08-11T07:01:03;2.75;;;1.73;;
69779;SDS011;57052;55.602;38.096;2022-08-11T07:03:58;3.25;;;2.10;;
69779;SDS011;57052;55.602;38.096;2022-08-11T07:12:37;3.25;;;2.20;;
69779;SDS011;57052;55.602;38.096;2022-08-11T07:15:34;5.25;;;2.97;;
69779;SDS011;57052;55.602;38.096;2022-08-11T07:18:07;3.50;;;1.80;;
69779;SDS011;57052;55.602;38.096;2022-08-11T07:21:05;2.08;;;1.63;;
69779;SDS011;57052;55.602;38.096;2022-08-11T07:23:52;3.40;;;2.30;;
69779;SDS011;57052;55.602;38.096;2022-08-11T07:26:39;7.95;;;2.10;;
69779;SDS011;57052;55.602;38.096;2022-08-11T07:29:28;6.30;;;2.60;;
69779;SDS011;57052;55.602;38.096;2022-08-11T07:31:56;3.00;;;1.75;;
69779;SDS011;57052;55.602;38.096;2022-08-11T07:34:31;4.13;;;1.73;;
69779;SDS011;57052;55.602;38.096;2022-08-11T07:37:03;2.00;;;1.70;;
69779;SDS011;57052;55.602;38.096;2022-08-11T07:39:35;3.45;;;1.80;;
69779;SDS011;57052;55.602;38.096;2022-08-11T07:42:10;2.50;;;1.77;;
69779;SDS011;57052;55.602;38.096;2022-08-11T07:44:39;2.35;;;1.50;;
69779;SDS011;57052;55.602;38.096;2022-08-11T07:47:24;3.00;;;1.60;;
69779;SDS011;57052;55.602;38.096;2022-08-11T07:50:10;2.47;;;1.70;;
69779;SDS011;57052;55.602;38.096;2022-08-11T07:52:55;2.10;;;1.60;;
69779;SDS011;57052;55.602;38.096;2022-08-11T07:55:23;2.92;;;1.65;;
69779;SDS011;57052;55.602;38.096;2022-08-11T07:57:52;4.10;;;1.80;;
69779;SDS011;57052;55.602;38.096;2022-08-11T08:03:36;3.17;;;1.80;;
69779;SDS011;57052;55.602;38.096;2022-08-11T08:06:22;2.80;;;1.40;;
69779;SDS011;57052;55.602;38.096;2022-08-11T08:09:07;4.70;;;1.40;;
69779;SDS011;57052;55.602;38.096;2022-08-11T08:11:53;2.97;;;1.60;;
69779;SDS011;57052;55.602;38.096;2022-08-11T08:14:38;1.60;;;1.42;;
69779;SDS011;57052;55.602;38.096;2022-08-11T08:17:23;2.35;;;1.40;;
69779;SDS011;57052;55.602;38.096;2022-08-11T08:20:11;1.58;;;1.40;;
69779;SDS011;57052;55.602;38.096;2022-08-11T08:22:38;2.13;;;1.70;;
69779;SDS011;57052;55.602;38.096;2022-08-11T08:25:05;3.78;;;1.42;;
69779;SDS011;57052;55.602;38.096;2022-08-11T08:27:31;4.88;;;1.67;;
69779;SDS011;57052;55.602;38.096;2022-08-11T08:29:59;1.92;;;1.42;;
69779;SDS011;57052;55.602;38.096;2022-08-11T08:32:46;2.20;;;1.40;;
69779;SDS011;57052;55.602;38.096;2022-08-11T08:35:12;3.67;;;1.58;;
69779;SDS011;57052;55.602;38.096;2022-08-11T08:37:39;3.42;;;1.55;;
69779;SDS011;57052;55.602;38.096;2022-08-11T08:40:06;2.40;;;1.50;;
69779;SDS011;57052;55.602;38.096;2022-08-11T08:42:40;2.38;;;1.60;;
69779;SDS011;57052;55.602;38.096;2022-08-11T08:45:17;2.22;;;1.58;;
69779;SDS011;57052;55.602;38.096;2022-08-11T08:47:45;2.75;;;1.70;;
69779;SDS011;57052;55.602;38.096;2022-08-11T08:50:16;2.77;;;1.70;;
69779;SDS011;57052;55.602;38.096;2022-08-11T08:52:55;1.65;;;1.40;;
69779;SDS011;57052;55.602;38.096;2022-08-11T08:55:25;2.20;;;1.42;;
69779;SDS011;57052;55.602;38.096;2022-08-11T08:57:53;1.75;;;1.40;;
69779;SDS011;57052;55.602;38.096;2022-08-11T09:00:24;2.88;;;1.40;;
69779;SDS011;57052;55.602;38.096;2022-08-11T09:03:02;2.53;;;1.63;;
69779;SDS011;57052;55.602;38.096;2022-08-11T09:05:28;1.85;;;1.50;;
69779;SDS011;57052;55.602;38.096;2022-08-11T09:07:54;1.88;;;1.60;;
69779;SDS011;57052;55.602;38.096;2022-08-11T09:10:22;1.85;;;1.48;;
69779;SDS011;57052;55.602;38.096;2022-08-11T09:12:50;1.77;;;1.40;;
69779;SDS011;57052;55.602;38.096;2022-08-11T09:15:17;3.00;;;1.52;;
69779;SDS011;57052;55.602;38.096;2022-08-11T09:17:44;2.58;;;1.60;;
69779;SDS011;57052;55.602;38.096;2022-08-11T09:20:12;2.72;;;1.70;;
69779;SDS011;57052;55.602;38.096;2022-08-11T09:22:42;2.03;;;1.67;;
69779;SDS011;57052;55.602;38.096;2022-08-11T09:25:28;2.10;;;1.50;;
69779;SDS011;57052;55.602;38.096;2022-08-11T09:28:15;3.38;;;1.73;;
69779;SDS011;57052;55.602;38.096;2022-08-11T09:30:46;2.35;;;1.50;;
69779;SDS011;57052;55.602;38.096;2022-08-11T09:33:19;3.20;;;1.60;;
69779;SDS011;57052;55.602;38.096;2022-08-11T09:35:47;3.38;;;1.80;;
69779;SDS011;57052;55.602;38.096;2022-08-11T09:38:15;1.77;;;1.50;;
69779;SDS011;57052;55.602;38.096;2022-08-11T09:41:01;2.13;;;1.50;;
69779;SDS011;57052;55.602;38.096;2022-08-11T09:43:30;3.70;;;1.42;;
69779;SDS011;57052;55.602;38.096;2022-08-11T09:46:16;1.80;;;1.50;;
69779;SDS011;57052;55.602;38.096;2022-08-11T09:48:50;2.03;;;1.45;;
69779;SDS011;57052;55.602;38.096;2022-08-11T09:51:19;1.67;;;1.30;;
69779;SDS011;57052;55.602;38.096;2022-08-11T09:53:46;1.60;;;1.30;;
69779;SDS011;57052;55.602;38.096;2022-08-11T09:56:16;2.17;;;1.50;;
69779;SDS011;57052;55.602;38.096;2022-08-11T09:59:02;1.75;;;1.40;;
69779;SDS011;57052;55.602;38.096;2022-08-11T10:04:30;3.67;;;1.40;;
69779;SDS011;57052;55.602;38.096;2022-08-11T10:07:02;2.72;;;1.40;;
69779;SDS011;57052;55.602;38.096;2022-08-11T10:12:02;2.30;;;1.60;;
69779;SDS011;57052;55.602;38.096;2022-08-11T10:14:33;2.13;;;1.40;;
69779;SDS011;57052;55.602;38.096;2022-08-11T10:17:23;2.22;;;1.40;;
69779;SDS011;57052;55.602;38.096;2022-08-11T10:19:49;2.47;;;1.35;;
69779;SDS011;57052;55.602;38.096;2022-08-11T10:22:16;2.78;;;1.42;;
69779;SDS011;57052;55.602;38.096;2022-08-11T10:25:01;2.95;;;1.30;;
69779;SDS011;57052;55.602;38.096;2022-08-11T10:27:54;2.00;;;1.40;;
69779;SDS011;57052;55.602;38.096;2022-08-11T10:30:26;2.35;;;1.48;;
69779;SDS011;57052;55.602;38.096;2022-08-11T10:33:12;2.30;;;1.65;;
69779;SDS011;57052;55.602;38.096;2022-08-11T10:35:57;1.60;;;1.40;;
69779;SDS011;57052;55.602;38.096;2022-08-11T10:38:24;6.47;;;1.65;;
69779;SDS011;57052;55.602;38.096;2022-08-11T10:40:51;2.10;;;1.35;;
69779;SDS011;57052;55.602;38.096;2022-08-11T10:43:51;2.15;;;1.40;;
69779;SDS011;57052;55.602;38.096;2022-08-11T10:46:17;2.13;;;1.30;;
69779;SDS011;57052;55.602;38.096;2022-08-11T10:49:03;2.42;;;1.70;;
69779;SDS011;57052;55.602;38.096;2022-08-11T10:51:30;1.90;;;1.30;;
69779;SDS011;57052;55.602;38.096;2022-08-11T10:54:16;1.75;;;1.27;;
69779;SDS011;57052;55.602;38.096;2022-08-11T10:57:00;2.28;;;1.30;;
69779;SDS011;57052;55.602;38.096;2022-08-11T10:59:45;2.85;;;1.45;;
69779;SDS011;57052;55.602;38.096;2022-08-11T11:02:12;3.17;;;1.38;;
69779;SDS011;57052;55.602;38.096;2022-08-11T11:04:51;1.73;;;1.30;;
69779;SDS011;57052;55.602;38.096;2022-08-11T11:10:20;1.95;;;1.40;;
69779;SDS011;57052;55.602;38.096;2022-08-11T11:12:46;3.00;;;1.55;;
69779;SDS011;57052;55.602;38.096;2022-08-11T11:15:37;2.28;;;1.58;;
69779;SDS011;57052;55.602;38.096;2022-08-11T11:18:28;2.92;;;1.67;;
69779;SDS011;57052;55.602;38.096;2022-08-11T11:23:39;2.22;;;1.40;;
69779;SDS011;57052;55.602;38.096;2022-08-11T11:37:44;2.33;;;1.60;;
69779;SDS011;57052;55.602;38.096;2022-08-11T11:40:12;1.35;;;1.20;;
69779;SDS011;57052;55.602;38.096;2022-08-11T11:42:41;1.30;;;1.20;;
69779;SDS011;57052;55.602;38.096;2022-08-11T11:45:10;1.75;;;1.40;;
69779;SDS011;57052;55.602;38.096;2022-08-11T11:47:39;2.28;;;1.33;;
69779;SDS011;57052;55.602;38.096;2022-08-11T11:50:06;2.17;;;1.38;;
69779;SDS011;57052;55.602;38.096;2022-08-11T11:52:33;3.65;;;1.50;;
69779;SDS011;57052;55.602;38.096;2022-08-11T11:54:59;1.90;;;1.23;;
69779;SDS011;57052;55.602;38.096;2022-08-11T11:57:28;3.25;;;1.50;;
69779;SDS011;57052;55.602;38.096;2022-08-11T12:00:14;2.95;;;1.55;;
69779;SDS011;57052;55.602;38.096;2022-08-11T12:02:59;4.70;;;1.63;;
69779;SDS011;57052;55.602;38.096;2022-08-11T12:05:27;2.35;;;1.40;;
69779;SDS011;57052;55.602;38.096;2022-08-11T12:07:57;2.35;;;1.50;;
69779;SDS011;57052;55.602;38.096;2022-08-11T12:10:57;2.75;;;1.40;;
69779;SDS011;57052;55.602;38.096;2022-08-11T12:13:45;2.90;;;1.58;;
69779;SDS011;57052;55.602;38.096;2022-08-11T12:16:14;2.08;;;1.40;;
69779;SDS011;57052;55.602;38.096;2022-08-11T12:18:42;2.00;;;1.30;;
69779;SDS011;57052;55.602;38.096;2022-08-11T12:21:12;2.42;;;1.40;;
69779;SDS011;57052;55.602;38.096;2022-08-11T12:23:39;1.67;;;1.33;;
69779;SDS011;57052;55.602;38.096;2022-08-11T12:26:25;2.55;;;1.23;;
69779;SDS011;57052;55.602;38.096;2022-08-11T12:29:11;2.13;;;1.35;;
69779;SDS011;57052;55.602;38.096;2022-08-11T12:31:39;2.15;;;1.27;;
69779;SDS011;57052;55.602;38.096;2022-08-11T12:34:07;2.30;;;1.38;;
69779;SDS011;57052;55.602;38.096;2022-08-11T12:36:36;1.52;;;1.35;;
69779;SDS011;57052;55.602;38.096;2022-08-11T12:39:08;2.47;;;1.58;;
69779;SDS011;57052;55.602;38.096;2022-08-11T12:41:36;3.50;;;1.60;;
69779;SDS011;57052;55.602;38.096;2022-08-11T12:44:24;2.80;;;1.50;;
69779;SDS011;57052;55.602;38.096;2022-08-11T12:47:11;1.90;;;1.50;;
69779;SDS011;57052;55.602;38.096;2022-08-11T12:49:46;2.97;;;1.60;;
69779;SDS011;57052;55.602;38.096;2022-08-11T12:52:36;1.75;;;1.48;;
69779;SDS011;57052;55.602;38.096;2022-08-11T12:55:15;2.75;;;1.60;;
69779;SDS011;57052;55.602;38.096;2022-08-11T12:58:02;2.22;;;1.65;;
69779;SDS011;57052;55.602;38.096;2022-08-11T13:00:42;2.60;;;1.60;;
69779;SDS011;57052;55.602;38.096;2022-08-11T13:03:27;1.55;;;1.45;;
69779;SDS011;57052;55.602;38.096;2022-08-11T13:06:12;8.98;;;2.10;;
69779;SDS011;57052;55.602;38.096;2022-08-11T13:08:39;2.75;;;1.50;;
69779;SDS011;57052;55.602;38.096;2022-08-11T13:11:06;3.70;;;1.80;;
69779;SDS011;57052;55.602;38.096;2022-08-11T13:13:52;3.35;;;1.70;;
69779;SDS011;57052;55.602;38.096;2022-08-11T13:16:30;4.07;;;1.75;;
69779;SDS011;57052;55.602;38.096;2022-08-11T13:19:21;2.45;;;1.60;;
69779;SDS011;57052;55.602;38.096;2022-08-11T13:21:48;2.10;;;1.58;;
69779;SDS011;57052;55.602;38.096;2022-08-11T13:24:15;2.33;;;1.58;;
69779;SDS011;57052;55.602;38.096;2022-08-11T13:26:42;1.83;;;1.35;;
69779;SDS011;57052;55.602;38.096;2022-08-11T13:29:09;1.50;;;1.20;;
69779;SDS011;57052;55.602;38.096;2022-08-11T13:31:35;2.17;;;1.40;;
69779;SDS011;57052;55.602;38.096;2022-08-11T13:34:02;1.98;;;1.50;;
69779;SDS011;57052;55.602;38.096;2022-08-11T13:36:28;2.42;;;1.60;;
69779;SDS011;57052;55.602;38.096;2022-08-11T13:38:54;3.08;;;1.65;;
69779;SDS011;57052;55.602;38.096;2022-08-11T13:41:23;3.25;;;1.63;;
69779;SDS011;57052;55.602;38.096;2022-08-11T13:44:08;2.80;;;1.60;;
69779;SDS011;57052;55.602;38.096;2022-08-11T13:46:37;3.63;;;1.90;;
69779;SDS011;57052;55.602;38.096;2022-08-11T13:49:06;2.20;;;1.50;;
69779;SDS011;57052;55.602;38.096;2022-08-11T13:51:35;1.83;;;1.50;;
69779;SDS011;57052;55.602;38.096;2022-08-11T13:56:30;2.88;;;1.73;;
69779;SDS011;57052;55.602;38.096;2022-08-11T13:58:57;2.78;;;1.60;;
69779;SDS011;57052;55.602;38.096;2022-08-11T14:01:26;2.60;;;1.60;;
69779;SDS011;57052;55.602;38.096;2022-08-11T14:03:55;3.50;;;2.00;;
69779;SDS011;57052;55.602;38.096;2022-08-11T14:06:27;2.65;;;1.70;;
69779;SDS011;57052;55.602;38.096;2022-08-11T14:08:53;4.20;;;1.75;;
69779;SDS011;57052;55.602;38.096;2022-08-11T14:11:20;2.63;;;1.52;;
69779;SDS011;57052;55.602;38.096;2022-08-11T14:14:05;2.78;;;1.60;;
69779;SDS011;57052;55.602;38.096;2022-08-11T14:16:36;2.78;;;1.73;;
69779;SDS011;57052;55.602;38.096;2022-08-11T14:21:36;2.42;;;1.67;;
69779;SDS011;57052;55.602;38.096;2022-08-11T14:24:23;2.35;;;1.58;;
69779;SDS011;57052;55.602;38.096;2022-08-11T14:26:51;3.70;;;1.70;;
69779;SDS011;57052;55.602;38.096;2022-08-11T14:29:19;3.13;;;1.73;;
69779;SDS011;57052;55.602;38.096;2022-08-11T14:31:51;3.40;;;1.65;;
69779;SDS011;57052;55.602;38.096;2022-08-11T14:34:20;2.88;;;1.80;;
69779;SDS011;57052;55.602;38.096;2022-08-11T14:37:30;3.45;;;1.70;;
69779;SDS011;57052;55.602;38.096;2022-08-11T14:39:40;1.95;;;1.60;;
69779;SDS011;57052;55.602;38.096;2022-08-11T14:42:11;2.58;;;1.70;;
69779;SDS011;57052;55.602;38.096;2022-08-11T14:45:00;3.75;;;1.88;;
69779;SDS011;57052;55.602;38.096;2022-08-11T14:47:51;2.70;;;1.80;;
69779;SDS011;57052;55.602;38.096;2022-08-11T14:50:20;2.80;;;1.80;;
69779;SDS011;57052;55.602;38.096;2022-08-11T14:52:49;2.63;;;1.80;;
69779;SDS011;57052;55.602;38.096;2022-08-11T14:55:20;3.47;;;1.88;;
69779;SDS011;57052;55.602;38.096;2022-08-11T14:58:10;3.35;;;1.77;;
69779;SDS011;57052;55.602;38.096;2022-08-11T15:00:40;2.80;;;1.70;;
69779;SDS011;57052;55.602;38.096;2022-08-11T15:03:07;4.60;;;1.90;;
69779;SDS011;57052;55.602;38.096;2022-08-11T15:05:37;4.07;;;1.80;;
69779;SDS011;57052;55.602;38.096;2022-08-11T15:08:06;2.38;;;1.60;;
69779;SDS011;57052;55.602;38.096;2022-08-11T15:10:33;5.00;;;2.95;;
69779;SDS011;57052;55.602;38.096;2022-08-11T15:13:00;4.03;;;2.10;;
69779;SDS011;57052;55.602;38.096;2022-08-11T15:15:28;4.05;;;2.00;;
69779;SDS011;57052;55.602;38.096;2022-08-11T15:18:14;4.30;;;2.00;;
69779;SDS011;57052;55.602;38.096;2022-08-11T15:20:43;4.95;;;1.73;;
69779;SDS011;57052;55.602;38.096;2022-08-11T15:23:27;4.28;;;1.92;;
69779;SDS011;57052;55.602;38.096;2022-08-11T15:26:14;4.85;;;2.00;;
69779;SDS011;57052;55.602;38.096;2022-08-11T15:28:47;3.25;;;1.80;;
69779;SDS011;57052;55.602;38.096;2022-08-11T15:31:33;2.97;;;1.90;;
69779;SDS011;57052;55.602;38.096;2022-08-11T15:34:20;2.90;;;1.70;;
69779;SDS011;57052;55.602;38.096;2022-08-11T15:37:08;2.60;;;1.60;;
69779;SDS011;57052;55.602;38.096;2022-08-11T15:39:53;3.58;;;1.88;;
69779;SDS011;57052;55.602;38.096;2022-08-11T15:42:59;3.25;;;2.10;;
69779;SDS011;57052;55.602;38.096;2022-08-11T15:48:21;2.60;;;1.80;;
69779;SDS011;57052;55.602;38.096;2022-08-11T15:50:55;3.78;;;1.80;;
69779;SDS011;57052;55.602;38.096;2022-08-11T15:53:27;2.85;;;2.00;;
69779;SDS011;57052;55.602;38.096;2022-08-11T15:55:57;2.63;;;1.70;;
69779;SDS011;57052;55.602;38.096;2022-08-11T15:58:25;2.78;;;1.95;;
69779;SDS011;57052;55.602;38.096;2022-08-11T16:01:15;4.38;;;1.90;;
69779;SDS011;57052;55.602;38.096;2022-08-11T16:04:05;2.83;;;1.77;;
69779;SDS011;57052;55.602;38.096;2022-08-11T16:06:37;3.15;;;1.90;;
69779;SDS011;57052;55.602;38.096;2022-08-11T16:12:06;3.97;;;2.25;;
69779;SDS011;57052;55.602;38.096;2022-08-11T16:14:36;5.10;;;2.30;;
69779;SDS011;57052;55.602;38.096;2022-08-11T16:17:25;4.63;;;2.20;;
69779;SDS011;57052;55.602;38.096;2022-08-11T16:19:55;4.50;;;2.20;;
69779;SDS011;57052;55.602;38.096;2022-08-11T16:22:31;4.65;;;2.35;;
69779;SDS011;57052;55.602;38.096;2022-08-11T16:25:02;5.30;;;2.40;;
69779;SDS011;57052;55.602;38.096;2022-08-11T16:27:32;4.35;;;2.42;;
69779;SDS011;57052;55.602;38.096;2022-08-11T16:30:02;4.53;;;2.17;;
69779;SDS011;57052;55.602;38.096;2022-08-11T16:32:30;9.68;;;2.80;;
69779;SDS011;57052;55.602;38.096;2022-08-11T16:35:02;5.60;;;2.95;;
69779;SDS011;57052;55.602;38.096;2022-08-11T16:37:50;6.10;;;2.95;;
69779;SDS011;57052;55.602;38.096;2022-08-11T16:40:36;7.05;;;3.05;;
69779;SDS011;57052;55.602;38.096;2022-08-11T16:43:04;4.50;;;2.92;;
69779;SDS011;57052;55.602;38.096;2022-08-11T16:45:52;7.93;;;3.35;;
69779;SDS011;57052;55.602;38.096;2022-08-11T16:48:38;6.43;;;3.40;;
69779;SDS011;57052;55.602;38.096;2022-08-11T16:51:07;15.60;;;5.10;;
69779;SDS011;57052;55.602;38.096;2022-08-11T16:53:36;10.35;;;4.68;;
69779;SDS011;57052;55.602;38.096;2022-08-11T16:56:03;8.68;;;3.90;;
69779;SDS011;57052;55.602;38.096;2022-08-11T16:58:32;7.70;;;3.80;;
69779;SDS011;57052;55.602;38.096;2022-08-11T17:01:20;8.77;;;3.65;;
69779;SDS011;57052;55.602;38.096;2022-08-11T17:03:53;7.45;;;4.00;;
69779;SDS011;57052;55.602;38.096;2022-08-11T17:06:43;9.52;;;4.40;;
69779;SDS011;57052;55.602;38.096;2022-08-11T17:09:30;7.45;;;4.07;;
69779;SDS011;57052;55.602;38.096;2022-08-11T17:12:18;9.85;;;4.13;;
69779;SDS011;57052;55.602;38.096;2022-08-11T17:15:08;10.73;;;5.88;;
69779;SDS011;57052;55.602;38.096;2022-08-11T17:17:57;8.60;;;5.20;;
69779;SDS011;57052;55.602;38.096;2022-08-11T17:20:23;7.07;;;4.25;;
69779;SDS011;57052;55.602;38.096;2022-08-11T17:22:51;6.47;;;4.13;;
69779;SDS011;57052;55.602;38.096;2022-08-11T17:25:36;10.27;;;5.22;;
69779;SDS011;57052;55.602;38.096;2022-08-11T17:28:03;11.52;;;5.28;;
69779;SDS011;57052;55.602;38.096;2022-08-11T17:30:30;12.80;;;5.35;;
69779;SDS011;57052;55.602;38.096;2022-08-11T17:33:16;8.20;;;5.10;;
69779;SDS011;57052;55.602;38.096;2022-08-11T17:36:02;10.65;;;5.38;;
69779;SDS011;57052;55.602;38.096;2022-08-11T17:38:28;12.10;;;5.60;;
69779;SDS011;57052;55.602;38.096;2022-08-11T17:40:58;10.57;;;5.63;;
69779;SDS011;57052;55.602;38.096;2022-08-11T17:43:44;13.95;;;5.75;;
69779;SDS011;57052;55.602;38.096;2022-08-11T17:46:30;10.00;;;5.50;;
69779;SDS011;57052;55.602;38.096;2022-08-11T17:49:16;10.95;;;5.80;;
69779;SDS011;57052;55.602;38.096;2022-08-11T17:51:44;10.43;;;5.28;;
69779;SDS011;57052;55.602;38.096;2022-08-11T17:54:32;12.13;;;6.00;;
69779;SDS011;57052;55.602;38.096;2022-08-11T17:57:19;13.55;;;7.10;;
69779;SDS011;57052;55.602;38.096;2022-08-11T18:00:04;12.73;;;7.32;;
69779;SDS011;57052;55.602;38.096;2022-08-11T18:02:35;14.10;;;7.30;;
69779;SDS011;57052;55.602;38.096;2022-08-11T18:05:23;14.55;;;7.50;;
69779;SDS011;57052;55.602;38.096;2022-08-11T18:07:52;13.68;;;7.43;;
69779;SDS011;57052;55.602;38.096;2022-08-11T18:10:38;18.23;;;7.57;;
69779;SDS011;57052;55.602;38.096;2022-08-11T18:13:24;15.82;;;8.45;;
69779;SDS011;57052;55.602;38.096;2022-08-11T18:16:12;15.02;;;8.82;;
69779;SDS011;57052;55.602;38.096;2022-08-11T18:18:56;16.75;;;8.77;;
69779;SDS011;57052;55.602;38.096;2022-08-11T18:21:41;16.58;;;9.50;;
69779;SDS011;57052;55.602;38.096;2022-08-11T18:24:28;17.30;;;9.63;;
69779;SDS011;57052;55.602;38.096;2022-08-11T18:27:15;17.20;;;9.32;;
69779;SDS011;57052;55.602;38.096;2022-08-11T18:30:03;17.40;;;9.35;;
69779;SDS011;57052;55.602;38.096;2022-08-11T18:32:49;15.02;;;8.52;;
69779;SDS011;57052;55.602;38.096;2022-08-11T18:35:35;16.90;;;8.30;;
69779;SDS011;57052;55.602;38.096;2022-08-11T18:38:21;18.23;;;8.50;;
69779;SDS011;57052;55.602;38.096;2022-08-11T18:41:09;16.85;;;9.05;;
69779;SDS011;57052;55.602;38.096;2022-08-11T18:43:56;16.42;;;9.25;;
69779;SDS011;57052;55.602;38.096;2022-08-11T18:46:43;15.93;;;9.05;;
69779;SDS011;57052;55.602;38.096;2022-08-11T18:49:30;17.52;;;9.02;;
69779;SDS011;57052;55.602;38.096;2022-08-11T18:52:18;17.98;;;10.10;;
69779;SDS011;57052;55.602;38.096;2022-08-11T18:55:04;18.50;;;10.20;;
69779;SDS011;57052;55.602;38.096;2022-08-11T18:57:53;22.90;;;10.57;;
69779;SDS011;57052;55.602;38.096;2022-08-11T19:00:39;20.00;;;10.38;;
69779;SDS011;57052;55.602;38.096;2022-08-11T19:03:24;22.55;;;10.20;;
69779;SDS011;57052;55.602;38.096;2022-08-11T19:06:11;18.60;;;9.73;;
69779;SDS011;57052;55.602;38.096;2022-08-11T19:08:58;18.88;;;9.50;;
69779;SDS011;57052;55.602;38.096;2022-08-11T19:11:44;20.10;;;10.07;;
69779;SDS011;57052;55.602;38.096;2022-08-11T19:14:30;18.05;;;9.18;;
69779;SDS011;57052;55.602;38.096;2022-08-11T19:17:16;19.55;;;10.63;;
69779;SDS011;57052;55.602;38.096;2022-08-11T19:20:03;19.13;;;10.27;;